createdAt,value
2019-01-25T00:04:48.611Z,22.5
2019-01-25T00:10:00.535Z,22.5
2019-01-25T00:14:56.543Z,22.5
2019-01-25T00:20:01.535Z,22.5
2019-01-25T00:21:25.773Z,22.5
2019-01-25T00:26:31.447Z,22.5
2019-01-25T00:31:37.012Z,22.5
2019-01-25T00:36:42.527Z,22.5
2019-01-25T00:41:47.502Z,22.5
2019-01-25T00:46:53.044Z,22.4
2019-01-25T00:51:58.358Z,22.4
2019-01-25T00:57:03.475Z,22.4
2019-01-25T01:02:08.460Z,22.4
2019-01-25T01:07:13.742Z,22.4
2019-01-25T01:12:18.916Z,22.4
2019-01-25T01:17:24.514Z,22.4
2019-01-25T01:22:29.613Z,22.3
2019-01-25T01:27:34.781Z,22.3
2019-01-25T01:32:39.917Z,22.3
2019-01-25T01:37:46.090Z,22.3
2019-01-25T01:42:51.850Z,22.3
2019-01-25T01:47:57.885Z,22.3
2019-01-25T01:53:03.611Z,22.3
2019-01-25T02:03:12.892Z,22.2
2019-01-25T02:08:18.777Z,22.2
2019-01-25T02:13:23.836Z,22.2
2019-01-25T02:18:28.919Z,22.2
2019-01-25T02:23:34.480Z,22.2
2019-01-25T02:28:39.649Z,22.2
2019-01-25T02:33:45.003Z,22.2
2019-01-25T02:38:50.848Z,22.2
2019-01-25T02:43:56.819Z,22.2
2019-01-25T02:49:03.186Z,22.1
2019-01-25T02:54:09.119Z,22.1
2019-01-25T02:59:14.909Z,22.1
2019-01-25T03:04:20.426Z,22.1
2019-01-25T03:09:26.096Z,22.1
2019-01-25T03:14:31.468Z,22.1
2019-01-25T03:19:37.250Z,22.1
2019-01-25T03:24:43.254Z,22
2019-01-25T03:29:49.382Z,22
2019-01-25T03:34:55.125Z,22
2019-01-25T03:40:00.717Z,22
2019-01-25T03:45:06.011Z,22
2019-01-25T03:50:12.213Z,22
2019-01-25T03:55:18.142Z,22
2019-01-25T04:00:23.399Z,21.9
2019-01-25T04:05:28.911Z,21.9
2019-01-25T04:10:34.688Z,22
2019-01-25T04:15:40.101Z,21.9
2019-01-25T04:20:44.769Z,21.9
2019-01-25T04:25:50.053Z,21.9
2019-01-25T04:30:55.882Z,21.9
2019-01-25T04:36:00.966Z,21.9
2019-01-25T04:46:07.962Z,21.9
2019-01-25T04:51:13.279Z,21.9
2019-01-25T04:56:17.057Z,21.9
2019-01-25T05:06:26.948Z,22.1
2019-01-25T05:11:33.075Z,22.2
2019-01-25T05:16:38.294Z,22.2
2019-01-25T05:21:44.888Z,22.3
2019-01-25T05:26:50.102Z,22.4
2019-01-25T05:31:55.300Z,22.4
2019-01-25T05:37:01.013Z,22.5
2019-01-25T05:42:06.676Z,22.7
2019-01-25T05:47:11.958Z,22.7
2019-01-25T05:52:17.202Z,22.8
2019-01-25T05:57:22.728Z,22.8
2019-01-25T06:02:28.428Z,22.8
2019-01-25T06:07:33.745Z,22.8
2019-01-25T06:12:39.279Z,22.8
2019-01-25T06:17:44.927Z,22.8
2019-01-25T06:22:50.440Z,22.9
2019-01-25T06:27:55.639Z,22.8
2019-01-25T06:33:01.795Z,22.9
2019-01-25T06:38:09.933Z,22.9
2019-01-25T06:43:17.978Z,22.9
2019-01-25T06:48:25.298Z,23.1
2019-01-25T06:53:30.715Z,23.1
2019-01-25T06:58:36.211Z,23.2
2019-01-25T07:03:42.564Z,23.2
2019-01-25T07:08:46.063Z,23.2
2019-01-25T07:13:49.904Z,23.2
2019-01-25T07:18:59.289Z,23.3
2019-01-25T07:24:04.619Z,23.3
2019-01-25T07:29:11.244Z,23.3
2019-01-25T07:34:17.197Z,23.3
2019-01-25T07:39:22.867Z,23.3
2019-01-25T07:44:29.017Z,23.3
2019-01-25T07:49:35.160Z,23.3
2019-01-25T07:54:41.013Z,23.3
2019-01-25T07:59:46.137Z,23.3
2019-01-25T08:04:52.134Z,23.2
2019-01-25T08:09:57.808Z,23.2
2019-01-25T08:15:04.113Z,23.2
2019-01-25T08:20:10.256Z,23.2
2019-01-25T08:25:10.124Z,23.2
2019-01-25T08:30:15.548Z,23.2
2019-01-25T08:35:20.435Z,23.1
2019-01-25T08:40:28.494Z,23.1
2019-01-25T08:45:33.613Z,23.2
2019-01-25T08:50:39.961Z,23.2
2019-01-25T08:55:45.390Z,23.2
2019-01-25T09:00:51.840Z,23.2
2019-01-25T09:06:00.595Z,23.1
2019-01-25T09:11:05.651Z,23
2019-01-25T09:16:09.907Z,23.1
2019-01-25T09:21:15.932Z,23.1
2019-01-25T09:31:24.826Z,23.1
2019-01-25T09:36:30.928Z,23
2019-01-25T09:41:36.752Z,23
2019-01-25T09:51:46.702Z,22.9
2019-01-25T09:56:52.543Z,22.9
2019-01-25T10:02:02.335Z,23
2019-01-25T10:07:06.013Z,22.9
2019-01-25T10:12:11.148Z,22.9
2019-01-25T10:17:17.061Z,22.9
2019-01-25T10:22:22.480Z,22.9
2019-01-25T10:27:27.628Z,22.9
2019-01-25T10:32:32.765Z,22.9
2019-01-25T10:37:38.054Z,23
2019-01-25T10:42:54.596Z,23
2019-01-25T10:47:49.918Z,23
2019-01-25T10:52:54.817Z,23
2019-01-25T10:58:00.093Z,23
2019-01-25T11:03:05.154Z,23
2019-01-25T11:08:11.049Z,23
2019-01-25T11:13:16.645Z,23
2019-01-25T11:18:21.900Z,23
2019-01-25T11:23:27.694Z,23
2019-01-25T11:28:32.990Z,23
2019-01-25T11:33:38.239Z,23
2019-01-25T11:38:44.081Z,23
2019-01-25T11:43:49.188Z,23.1
2019-01-25T11:48:54.828Z,23
2019-01-25T11:54:00.775Z,23
2019-01-25T11:59:06.270Z,23
2019-01-25T12:04:11.424Z,23
2019-01-25T12:09:16.696Z,23
2019-01-25T12:14:22.223Z,23
2019-01-25T12:19:28.051Z,23.1
2019-01-25T12:24:34.148Z,23
2019-01-25T12:29:39.580Z,23
2019-01-25T12:34:45.185Z,23
2019-01-25T12:39:51.133Z,23
2019-01-25T12:44:56.211Z,23
2019-01-25T12:50:02.209Z,23
2019-01-25T12:55:08.185Z,23
2019-01-25T13:00:14.064Z,22.9
2019-01-25T13:10:23.352Z,23
2019-01-25T13:15:28.647Z,23
2019-01-25T13:20:34.051Z,23
2019-01-25T13:25:34.758Z,23
2019-01-25T13:30:40.341Z,23
2019-01-25T13:35:45.609Z,23
2019-01-25T13:40:50.907Z,23
2019-01-25T13:45:56.719Z,23
2019-01-25T13:56:07.556Z,23
2019-01-25T14:01:12.053Z,23
2019-01-25T14:06:17.371Z,23.1
2019-01-25T14:11:22.695Z,23.1
2019-01-25T14:16:28.276Z,23.1
2019-01-25T14:21:33.968Z,23.1
2019-01-25T14:26:38.969Z,23.1
2019-01-25T14:31:44.225Z,23.2
2019-01-25T14:36:49.929Z,23.2
2019-01-25T14:41:55.569Z,23.2
2019-01-25T14:47:01.208Z,23.3
2019-01-25T14:57:11.644Z,23.3
2019-01-25T15:02:17.655Z,23.3
2019-01-25T15:07:23.128Z,23.3
2019-01-25T15:12:28.244Z,23.2
2019-01-25T15:17:34.013Z,23.1
2019-01-25T15:22:39.997Z,23
2019-01-25T15:27:45.006Z,23
2019-01-25T15:37:54.368Z,22.9
2019-01-25T15:42:59.775Z,22.9
2019-01-25T15:48:05.265Z,22.9
2019-01-25T15:53:11.389Z,23
2019-01-25T15:58:17.899Z,23.1
2019-01-25T16:03:23.499Z,23
2019-01-25T16:08:28.862Z,23.1
2019-01-25T16:13:34.670Z,23.1
2019-01-25T16:18:39.905Z,23.1
2019-01-25T16:23:45.573Z,23.1
2019-01-25T16:28:49.744Z,23.1
2019-01-25T16:33:55.494Z,23.1
2019-01-25T16:39:00.649Z,23.2
2019-01-25T16:44:05.100Z,23.2
2019-01-25T16:49:14.899Z,23.2
2019-01-25T16:54:20.570Z,23.2
2019-01-25T16:59:25.712Z,23.2
2019-01-25T17:09:38.293Z,23.2
2019-01-25T17:14:44.101Z,23.2
2019-01-25T17:19:44.236Z,23.2
2019-01-25T17:24:51.377Z,23.2
2019-01-25T17:29:56.583Z,23.2
2019-01-25T17:35:01.852Z,23.2
2019-01-25T17:40:05.143Z,23.2
2019-01-25T17:45:10.517Z,23.2
2019-01-25T17:50:15.586Z,23.3
2019-01-25T17:55:21.074Z,23.2
2019-01-25T18:00:27.298Z,23.2
2019-01-25T18:05:27.218Z,23.2
2019-01-25T18:10:32.320Z,23.2
2019-01-25T18:15:38.156Z,23.2
2019-01-25T18:20:44.541Z,23.2
2019-01-25T18:25:50.160Z,23.3
2019-01-25T18:30:55.192Z,23.3
2019-01-25T18:36:36.125Z,23.3
2019-01-25T18:41:41.701Z,17
2019-01-25T18:46:47.425Z,19.3
2019-01-25T18:56:56.525Z,20.4
2019-01-25T19:02:03.233Z,21.5
2019-01-25T19:07:08.629Z,21.5
2019-01-25T19:12:14.131Z,21.7
2019-01-25T19:17:18.282Z,21.8
2019-01-25T19:22:23.434Z,22
2019-01-25T19:27:29.081Z,22.1
2019-01-25T19:32:35.694Z,22.4
2019-01-25T19:37:43.100Z,22.5
2019-01-25T19:42:47.783Z,22.6
2019-01-25T19:47:54.046Z,22.6
2019-01-25T19:52:58.672Z,22.6
2019-01-25T19:58:05.587Z,22.7
2019-01-25T20:03:11.372Z,22.7
2019-01-25T20:08:17.217Z,22.7
2019-01-25T20:13:22.945Z,22.8
2019-01-25T20:18:28.329Z,22.8
2019-01-25T20:23:34.009Z,22.8
2019-01-25T20:28:42.029Z,22.9
2019-01-25T20:33:47.956Z,23
2019-01-25T20:38:52.361Z,23
2019-01-25T20:43:59.228Z,23
2019-01-25T20:49:05.949Z,23
2019-01-25T20:54:12.304Z,23.1
2019-01-25T20:59:17.831Z,23.1
2019-01-25T21:04:25.639Z,23.1
2019-01-25T21:09:31.907Z,23.1
2019-01-25T21:14:36.871Z,23.2
2019-01-25T21:19:42.378Z,23.1
2019-01-25T21:24:47.533Z,23.1
2019-01-25T21:29:53.731Z,23
2019-01-25T21:34:59.165Z,23.1
2019-01-25T21:40:10.595Z,22.9
2019-01-25T21:45:10.619Z,22.9
2019-01-25T21:50:16.662Z,22.8
2019-01-25T21:55:22.343Z,22.8
2019-01-25T22:00:27.673Z,22.8
2019-01-25T22:10:36.862Z,22.7
2019-01-25T22:20:46.300Z,22.6
2019-01-25T22:25:51.869Z,22.6
2019-01-25T22:30:59.059Z,22.6
2019-01-25T22:36:04.587Z,22.5
2019-01-25T22:41:10.999Z,22.5
2019-01-25T22:46:16.563Z,22.5
2019-01-25T22:51:22.517Z,22.5
2019-01-25T22:56:27.867Z,22.5
2019-01-25T23:01:32.698Z,22.4
2019-01-25T23:06:38.479Z,22.4
2019-01-25T23:11:44.472Z,22.4
2019-01-25T23:16:50.029Z,22.3
2019-01-25T23:21:54.506Z,22.3
2019-01-25T23:26:59.806Z,22.3
2019-01-25T23:32:05.724Z,22.2
2019-01-25T23:37:11.657Z,22.2
2019-01-25T23:42:17.161Z,22.2
2019-01-25T23:47:23.015Z,22.1
2019-01-25T23:52:29.040Z,22.1
2019-01-25T23:57:34.836Z,22.1
